Flight Track Log - Related Links

Times and Time Zones

All times are in EDT time to prevent confusion due to time zone crossing. See the VH-JXC flight status page for this flight to view local times or setup timezone preferences in your user account.

Time Position Orientation Groundspeed Altitude Reporting Facility
EDT Latitude Longitude Course Direction KTS MPH feet Rate Location/Type
Thu 01:37:20 AM -32.0512 115.7756 329° Northwest 73 84 1,400  Level Aus ATC (RADAR)
Thu 01:38:19 AM -32.0322 115.7622 329° Northwest 89 102 1,500 115 Climbing Aus ATC (RADAR)
Thu 01:39:04 AM -32.0110 115.7630 North 102 117 1,600  Climbing Aus ATC (RADAR)
Thu 01:39:39 AM -31.9916 115.7637 North 120 138 1,500 -171 Descending Aus ATC (RADAR)
Thu 01:40:14 AM -31.9704 115.7642 North 130 150 1,400 85 Descending Aus ATC (RADAR)
Thu 01:40:50 AM -31.9508 115.7647 North 122 140 1,600 55 Climbing Aus ATC (RADAR)
Thu 01:42:04 AM -31.9071 115.7626 358° North 128 147 1,500 -55 Descending Aus ATC (RADAR)
Thu 01:42:39 AM -31.8902 115.7544 338° Northwest 122 140 1,500  Level Aus ATC (RADAR)
Thu 01:43:34 AM -31.9285 115.7494 186° South 156 180 1,500  Level Aus ATC (RADAR)
Thu 01:44:14 AM -31.9580 115.7491 180° South 159 183 1,500 80 Level Aus ATC (RADAR)
Thu 01:44:49 AM -31.9831 115.7491 180° South 156 180 1,600  Climbing Aus ATC (RADAR)
Thu 01:45:49 AM -32.0161 115.7371 197° South 135 155 1,500 -100 Descending Aus ATC (RADAR)
Thu 01:49:34 AM -32.1479 115.7412 180° South 1,500  Level Aus ATC (Calculated)
Thu 01:51:00 AM -32.1696 115.7412 180° South  Level FlightAware Approximate
Thu 01:52:00 AM -32.1848 115.7412 180° South  Level FlightAware Approximate
Thu 01:53:00 AM -32.2000 115.7413 180° South  Level FlightAware Approximate
Thu 01:53:19 AM -32.1428 115.8801 218° Southwest 3,000  Level Aus ATC (Calculated)
Thu 01:55:00 AM -32.1629 115.8614 218° Southwest  Level FlightAware Approximate
Thu 01:56:00 AM -32.1748 115.8504 218° Southwest  Level FlightAware Approximate
Thu 01:57:00 AM -32.1867 115.8393 218° Southwest  Level FlightAware Approximate
Thu 01:57:34 AM -32.1349 116.0884 242° Southwest 3,000  Level Aus ATC (Calculated)
Thu 01:59:00 AM -32.1452 116.0658 242° Southwest  Level FlightAware Approximate
Thu 01:59:34 AM -32.1308 116.1925 247° West 3,000  Level Aus ATC (Calculated)
Thu 02:01:00 AM -32.1393 116.1689 247° West  Level FlightAware Approximate
Thu 02:02:00 AM -32.1453 116.1524 247° West  Level FlightAware Approximate
Thu 02:03:00 AM -32.1512 116.1359 247° West  Level FlightAware Approximate
Thu 02:04:00 AM -32.1571 116.1194 247° West  Level FlightAware Approximate
Thu 02:04:53 AM -32.1369 116.3780 264° West  Level Aus ATC (Calculated)
Thu 02:05:00 AM -32.1630 116.1029 247° West  Level FlightAware Approximate
Thu 02:05:34 AM -32.1369 116.3780 254° West  Level Aus ATC (Calculated)
Thu 02:06:00 AM -32.1416 116.3588 254° West  Level FlightAware Approximate
Thu 02:07:00 AM -32.1429 116.3533 254° West  Level FlightAware Approximate
Thu 02:08:00 AM -32.1472 116.3361 254° West  Level FlightAware Approximate
Thu 02:08:53 AM -32.1571 116.5408 273° West  Level Aus ATC (Calculated)
Thu 02:09:00 AM -32.1493 116.3539 71° East  Level Estimated
Thu 02:10:00 AM -32.1546 116.5210 278° West  Level FlightAware Approximate
Thu 02:10:52 AM -32.1671 116.6222 278° West  Level Aus ATC (Calculated)
Thu 02:11:00 AM -32.1524 116.5032 278° West  Level FlightAware Approximate
Thu 02:12:00 AM -32.1646 116.6021 278° West  Level FlightAware Approximate
Thu 02:13:00 AM -32.1624 116.5843 278° West  Level FlightAware Approximate
Thu 02:14:00 AM -32.1603 116.5666 278° West  Level FlightAware Approximate
Thu 02:15:00 AM -32.1581 116.5488 278° West  Level FlightAware Approximate
Thu 02:16:00 AM -32.1559 116.5311 278° West  Level FlightAware Approximate
Thu 02:17:00 AM -32.1537 116.5133 278° West  Level FlightAware Approximate
Thu 02:18:00 AM -32.1515 116.4956 278° West  Level FlightAware Approximate
Thu 02:19:00 AM -32.1493 116.4779 278° West  Level FlightAware Approximate
Thu 02:20:00 AM -32.1471 116.4601 278° West  Level FlightAware Approximate
Thu 02:21:00 AM -32.1449 116.4424 278° West  Level FlightAware Approximate
Thu 02:22:00 AM -32.1427 116.4246 278° West  Level FlightAware Approximate
Thu 02:23:00 AM -32.1405 116.4069 278° West  Level FlightAware Approximate
Thu 02:24:00 AM -32.1382 116.3892 278° West  Level FlightAware Approximate
Thu 02:25:00 AM -32.1360 116.3714 278° West  Level FlightAware Approximate
Thu 02:26:00 AM -32.1338 116.3537 278° West  Level FlightAware Approximate
Thu 02:27:00 AM -32.1316 116.3360 278° West  Level FlightAware Approximate
Thu 02:28:00 AM -32.1294 116.3182 278° West  Level FlightAware Approximate
Thu 02:29:00 AM -32.1272 116.3005 278° West  Level FlightAware Approximate
Thu 02:30:00 AM -32.1249 116.2828 278° West  Level FlightAware Approximate
Thu 02:31:00 AM -32.1272 116.3005 98° East  Level FlightAware Approximate
Thu 02:32:00 AM -32.1249 116.2828 278° West  Level FlightAware Approximate
Thu 02:33:00 AM -32.1272 116.3005 98° East  Level FlightAware Approximate
Thu 02:34:00 AM -32.1249 116.2828 278° West  Level FlightAware Approximate
Thu 02:35:00 AM -32.1272 116.3005 98° East  Level FlightAware Approximate
Thu 02:36:00 AM -32.1249 116.2828 278° West  Level FlightAware Approximate
Thu 02:37:00 AM -32.1272 116.3005 98° East  Level FlightAware Approximate
Thu 02:38:00 AM -32.1249 116.2828 278° West  Level FlightAware Approximate
Thu 02:39:00 AM -32.1272 116.3005 98° East  Level FlightAware Approximate
Thu 02:40:00 AM -32.1249 116.2828 278° West  Level FlightAware Approximate
Thu 02:41:00 AM -32.1272 116.3005 98° East  Level FlightAware Approximate
Thu 02:42:00 AM -32.1267 116.2967 71° East  Level FlightAware Approximate
Thu 02:43:00 AM -32.1289 116.3144 71° East  Level Estimated
Thu 02:44:00 AM -32.1267 116.2967 71° East  Level FlightAware Approximate
Thu 02:45:00 AM -32.1289 116.3144 71° East  Level Estimated
Thu 02:46:00 AM -32.1267 116.2967 71° East  Level FlightAware Approximate
Thu 02:47:00 AM -32.1289 116.3144 71° East  Level Estimated
Thu 02:48:00 AM -32.1267 116.2967 71° East  Level FlightAware Approximate
Thu 02:49:00 AM -32.1289 116.3144 71° East  Level Estimated
Thu 02:50:00 AM -32.1267 116.2967 71° East  Level FlightAware Approximate
Thu 02:51:00 AM -32.1289 116.3144 71° East  Level Estimated
Thu 02:52:00 AM -32.1267 116.2967 71° East  Level FlightAware Approximate
Thu 02:53:00 AM -32.1289 116.3144 71° East  Level Estimated
Thu 02:54:00 AM -32.1267 116.2967 71° East  Level FlightAware Approximate
Thu 02:55:00 AM -32.1289 116.3144 71° East  Level Estimated
Thu 02:56:00 AM -32.1267 116.2967 71° East  Level FlightAware Approximate
Thu 02:57:00 AM -32.1289 116.3144 71° East  Level Estimated
Thu 02:58:00 AM -32.1267 116.2967 71° East  Level FlightAware Approximate
Thu 02:59:00 AM -32.1289 116.3144 71° East  Level Estimated
Thu 03:00:00 AM -32.1267 116.2967 71° East  Level FlightAware Approximate

Login

Don't have an account? Register now (free) for customized features, flight alerts, and more!